หน้าหลัก
METAR-TAF:

METAR-TAF

ท่าอากาศยาน :

RAF

Spadeadam, อังกฤษ

ละติจูด: 55-03N, ลองจิจูด: 002-33W, ความสูง: 325 ม.

การสังเกตสภาพอากาศปัจจุบัน

รายงานได้ทำขึ้นเมื่อ 39 นาทีที่แล้ว ณ เวลา 00:50 UTC
ลม 8 นอตจากตะวันออก/ตะวันออกเฉียงเหนือ
อุณหภูมิ 8°C
ความชื้น 100%
ความกดอากาศ 1021 hPa
ทัศนวิสัย 10 กม. หรือมากกว่า
ฝนตกเล็กน้อย,

METAR: EGOM 190050Z AUTO 06008KT 9999 -RA OVC009/// 08/08 Q1021

เวลา: 02:29 (01:29 UTC)


TAF: หายไป

สังเกตการณ์สภาพอากาศและพยากรณ์อากาศของสนามบินมากกว่า 4000 แห่ง (รายงาน METAR และ TAF).

สถานีที่ดูได้จะแสดงไว้ด้วยจุดสีเหลืองและสีแดงบนแผนที่.

เลื่อนเมาส์ไปเหนือจุดเพื่อดูชื่อสถานี.

แล้วคลิกเพื่อดูสังเกตการณ์และการพยากรณ์สภาพอากาศ.

ในการเปลี่ยนแผนที่: คลิกที่ปุ่มสีเขียวที่มีกากบาทสีดำเพื่อซูมเข้า; ที่ปุ่มสีเขียวที่มีขีดเพื่อซูมออก; หรือที่ลูกศรสีเขียวเพื่อไปยังแผนที่ที่อยู่ติดกัน.


METAR-TAF: